sensor_id;sensor_type;location;lat;lon;timestamp;P1;durP1;ratioP1;P2;durP2;ratioP2
35847;SDS011;22332;51.954;20.118;2023-05-21T00:01:42;8.80;;;7.50;;
35847;SDS011;22332;51.954;20.118;2023-05-21T00:04:50;10.70;;;7.60;;
35847;SDS011;22332;51.954;20.118;2023-05-21T00:07:55;9.60;;;6.80;;
35847;SDS011;22332;51.954;20.118;2023-05-21T00:11:01;9.60;;;7.40;;
35847;SDS011;22332;51.954;20.118;2023-05-21T00:14:07;9.70;;;7.40;;
35847;SDS011;22332;51.954;20.118;2023-05-21T00:17:12;8.30;;;6.70;;
35847;SDS011;22332;51.954;20.118;2023-05-21T00:20:19;7.10;;;6.30;;
35847;SDS011;22332;51.954;20.118;2023-05-21T00:23:25;6.30;;;5.60;;
35847;SDS011;22332;51.954;20.118;2023-05-21T00:26:34;9.50;;;6.40;;
35847;SDS011;22332;51.954;20.118;2023-05-21T00:29:40;6.70;;;5.90;;
35847;SDS011;22332;51.954;20.118;2023-05-21T00:32:45;6.80;;;6.00;;
35847;SDS011;22332;51.954;20.118;2023-05-21T00:35:51;7.70;;;6.10;;
35847;SDS011;22332;51.954;20.118;2023-05-21T00:38:56;8.10;;;6.40;;
35847;SDS011;22332;51.954;20.118;2023-05-21T00:42:04;7.20;;;6.40;;
35847;SDS011;22332;51.954;20.118;2023-05-21T00:45:10;10.40;;;6.90;;
35847;SDS011;22332;51.954;20.118;2023-05-21T00:48:16;12.30;;;7.50;;
35847;SDS011;22332;51.954;20.118;2023-05-21T00:51:23;10.80;;;7.40;;
35847;SDS011;22332;51.954;20.118;2023-05-21T00:54:32;12.00;;;8.10;;
35847;SDS011;22332;51.954;20.118;2023-05-21T00:57:38;14.60;;;8.40;;
35847;SDS011;22332;51.954;20.118;2023-05-21T01:00:44;12.90;;;7.60;;
35847;SDS011;22332;51.954;20.118;2023-05-21T01:03:50;12.30;;;8.40;;
35847;SDS011;22332;51.954;20.118;2023-05-21T01:06:59;13.00;;;9.30;;
35847;SDS011;22332;51.954;20.118;2023-05-21T01:10:05;12.00;;;8.80;;
35847;SDS011;22332;51.954;20.118;2023-05-21T01:13:13;11.30;;;8.30;;
35847;SDS011;22332;51.954;20.118;2023-05-21T01:16:19;10.80;;;7.90;;
35847;SDS011;22332;51.954;20.118;2023-05-21T01:19:25;12.20;;;8.50;;
35847;SDS011;22332;51.954;20.118;2023-05-21T01:22:31;14.70;;;10.10;;
35847;SDS011;22332;51.954;20.118;2023-05-21T01:25:38;21.40;;;12.20;;
35847;SDS011;22332;51.954;20.118;2023-05-21T01:28:44;17.20;;;10.90;;
35847;SDS011;22332;51.954;20.118;2023-05-21T01:31:55;16.30;;;9.20;;
35847;SDS011;22332;51.954;20.118;2023-05-21T01:35:08;9.70;;;6.90;;
35847;SDS011;22332;51.954;20.118;2023-05-21T01:38:18;9.50;;;6.20;;
35847;SDS011;22332;51.954;20.118;2023-05-21T01:44:36;8.90;;;6.30;;
35847;SDS011;22332;51.954;20.118;2023-05-21T01:47:43;9.70;;;7.00;;
35847;SDS011;22332;51.954;20.118;2023-05-21T01:50:51;8.00;;;6.40;;
35847;SDS011;22332;51.954;20.118;2023-05-21T01:53:58;7.20;;;6.00;;
35847;SDS011;22332;51.954;20.118;2023-05-21T01:57:04;8.00;;;5.60;;
35847;SDS011;22332;51.954;20.118;2023-05-21T02:00:11;8.80;;;6.10;;
35847;SDS011;22332;51.954;20.118;2023-05-21T02:03:23;7.60;;;5.90;;
35847;SDS011;22332;51.954;20.118;2023-05-21T02:06:32;7.50;;;5.80;;
35847;SDS011;22332;51.954;20.118;2023-05-21T02:09:41;6.00;;;4.50;;
35847;SDS011;22332;51.954;20.118;2023-05-21T02:12:46;7.20;;;5.30;;
35847;SDS011;22332;51.954;20.118;2023-05-21T02:15:52;7.70;;;5.90;;
35847;SDS011;22332;51.954;20.118;2023-05-21T02:18:58;7.00;;;5.20;;
35847;SDS011;22332;51.954;20.118;2023-05-21T02:22:06;6.70;;;5.20;;
35847;SDS011;22332;51.954;20.118;2023-05-21T02:25:12;7.00;;;5.20;;
35847;SDS011;22332;51.954;20.118;2023-05-21T02:28:20;7.40;;;6.10;;
35847;SDS011;22332;51.954;20.118;2023-05-21T02:31:25;9.90;;;5.70;;
35847;SDS011;22332;51.954;20.118;2023-05-21T02:34:31;8.70;;;5.60;;
35847;SDS011;22332;51.954;20.118;2023-05-21T02:37:39;6.10;;;5.50;;
35847;SDS011;22332;51.954;20.118;2023-05-21T02:40:45;7.80;;;6.00;;
35847;SDS011;22332;51.954;20.118;2023-05-21T02:43:51;8.90;;;6.10;;
35847;SDS011;22332;51.954;20.118;2023-05-21T02:46:57;6.60;;;5.40;;
35847;SDS011;22332;51.954;20.118;2023-05-21T02:50:04;8.70;;;5.80;;
35847;SDS011;22332;51.954;20.118;2023-05-21T02:56:19;6.50;;;5.40;;
35847;SDS011;22332;51.954;20.118;2023-05-21T02:59:25;7.80;;;6.00;;
35847;SDS011;22332;51.954;20.118;2023-05-21T03:02:30;7.80;;;6.00;;
35847;SDS011;22332;51.954;20.118;2023-05-21T03:05:36;7.20;;;5.90;;
35847;SDS011;22332;51.954;20.118;2023-05-21T03:08:41;8.10;;;6.30;;
35847;SDS011;22332;51.954;20.118;2023-05-21T03:11:46;9.50;;;6.50;;
35847;SDS011;22332;51.954;20.118;2023-05-21T03:14:53;7.70;;;6.20;;
35847;SDS011;22332;51.954;20.118;2023-05-21T03:17:58;7.70;;;6.30;;
35847;SDS011;22332;51.954;20.118;2023-05-21T03:21:04;8.30;;;6.00;;
35847;SDS011;22332;51.954;20.118;2023-05-21T03:24:10;7.00;;;6.00;;
35847;SDS011;22332;51.954;20.118;2023-05-21T03:27:16;8.10;;;5.90;;
35847;SDS011;22332;51.954;20.118;2023-05-21T03:30:23;11.40;;;7.90;;
35847;SDS011;22332;51.954;20.118;2023-05-21T03:33:55;12.40;;;8.70;;
35847;SDS011;22332;51.954;20.118;2023-05-21T03:37:04;15.00;;;10.20;;
35847;SDS011;22332;51.954;20.118;2023-05-21T03:40:10;20.80;;;12.20;;
35847;SDS011;22332;51.954;20.118;2023-05-21T03:43:17;14.50;;;10.80;;
35847;SDS011;22332;51.954;20.118;2023-05-21T03:46:23;14.60;;;9.90;;
35847;SDS011;22332;51.954;20.118;2023-05-21T03:49:39;11.50;;;7.90;;
35847;SDS011;22332;51.954;20.118;2023-05-21T03:52:44;10.30;;;7.80;;
35847;SDS011;22332;51.954;20.118;2023-05-21T03:55:50;11.00;;;7.00;;
35847;SDS011;22332;51.954;20.118;2023-05-21T03:58:58;11.70;;;7.90;;
35847;SDS011;22332;51.954;20.118;2023-05-21T04:02:04;13.10;;;8.20;;
35847;SDS011;22332;51.954;20.118;2023-05-21T04:05:10;11.30;;;8.40;;
35847;SDS011;22332;51.954;20.118;2023-05-21T04:08:16;12.10;;;8.40;;
35847;SDS011;22332;51.954;20.118;2023-05-21T04:11:21;10.90;;;8.20;;
35847;SDS011;22332;51.954;20.118;2023-05-21T04:14:27;10.40;;;9.10;;
35847;SDS011;22332;51.954;20.118;2023-05-21T04:17:33;12.70;;;8.60;;
35847;SDS011;22332;51.954;20.118;2023-05-21T04:20:38;11.10;;;9.10;;
35847;SDS011;22332;51.954;20.118;2023-05-21T04:23:44;12.60;;;9.00;;
35847;SDS011;22332;51.954;20.118;2023-05-21T04:26:58;11.60;;;8.80;;
35847;SDS011;22332;51.954;20.118;2023-05-21T04:30:05;13.00;;;8.70;;
35847;SDS011;22332;51.954;20.118;2023-05-21T04:33:11;12.00;;;8.40;;
35847;SDS011;22332;51.954;20.118;2023-05-21T04:36:19;11.20;;;8.40;;
35847;SDS011;22332;51.954;20.118;2023-05-21T04:39:26;12.10;;;9.20;;
35847;SDS011;22332;51.954;20.118;2023-05-21T04:42:33;14.70;;;9.70;;
35847;SDS011;22332;51.954;20.118;2023-05-21T04:45:39;13.10;;;10.10;;
35847;SDS011;22332;51.954;20.118;2023-05-21T04:48:44;10.80;;;8.10;;
35847;SDS011;22332;51.954;20.118;2023-05-21T04:51:52;12.30;;;9.30;;
35847;SDS011;22332;51.954;20.118;2023-05-21T04:54:58;11.40;;;9.10;;
35847;SDS011;22332;51.954;20.118;2023-05-21T04:58:04;25.00;;;19.10;;
35847;SDS011;22332;51.954;20.118;2023-05-21T05:01:11;19.20;;;17.20;;
35847;SDS011;22332;51.954;20.118;2023-05-21T05:04:17;14.00;;;12.20;;
35847;SDS011;22332;51.954;20.118;2023-05-21T05:07:22;9.70;;;8.60;;
35847;SDS011;22332;51.954;20.118;2023-05-21T05:10:28;7.90;;;6.50;;
35847;SDS011;22332;51.954;20.118;2023-05-21T05:13:33;7.70;;;5.50;;
35847;SDS011;22332;51.954;20.118;2023-05-21T05:16:39;8.10;;;5.40;;
35847;SDS011;22332;51.954;20.118;2023-05-21T05:19:45;10.60;;;5.50;;
35847;SDS011;22332;51.954;20.118;2023-05-21T05:22:50;6.80;;;4.90;;
35847;SDS011;22332;51.954;20.118;2023-05-21T05:25:56;9.70;;;6.00;;
35847;SDS011;22332;51.954;20.118;2023-05-21T05:29:02;7.80;;;4.50;;
35847;SDS011;22332;51.954;20.118;2023-05-21T05:32:08;5.40;;;4.10;;
35847;SDS011;22332;51.954;20.118;2023-05-21T05:35:13;4.40;;;3.60;;
35847;SDS011;22332;51.954;20.118;2023-05-21T05:38:19;4.40;;;3.60;;
35847;SDS011;22332;51.954;20.118;2023-05-21T05:41:25;4.80;;;3.90;;
35847;SDS011;22332;51.954;20.118;2023-05-21T05:44:31;6.00;;;4.10;;
35847;SDS011;22332;51.954;20.118;2023-05-21T05:47:37;6.20;;;3.90;;
35847;SDS011;22332;51.954;20.118;2023-05-21T05:50:43;6.00;;;3.80;;
35847;SDS011;22332;51.954;20.118;2023-05-21T05:53:50;4.80;;;3.60;;
35847;SDS011;22332;51.954;20.118;2023-05-21T05:56:56;10.60;;;5.80;;
35847;SDS011;22332;51.954;20.118;2023-05-21T06:00:02;11.70;;;6.20;;
35847;SDS011;22332;51.954;20.118;2023-05-21T06:03:15;11.20;;;5.90;;
35847;SDS011;22332;51.954;20.118;2023-05-21T06:06:20;29.50;;;16.40;;
35847;SDS011;22332;51.954;20.118;2023-05-21T06:09:26;10.70;;;6.40;;
35847;SDS011;22332;51.954;20.118;2023-05-21T06:12:31;8.20;;;5.60;;
35847;SDS011;22332;51.954;20.118;2023-05-21T06:15:37;7.00;;;3.70;;
35847;SDS011;22332;51.954;20.118;2023-05-21T06:18:44;4.20;;;3.50;;
35847;SDS011;22332;51.954;20.118;2023-05-21T06:21:50;3.70;;;3.00;;
35847;SDS011;22332;51.954;20.118;2023-05-21T06:24:56;4.60;;;3.10;;
35847;SDS011;22332;51.954;20.118;2023-05-21T06:28:01;4.50;;;3.10;;
35847;SDS011;22332;51.954;20.118;2023-05-21T06:31:09;4.20;;;2.90;;
35847;SDS011;22332;51.954;20.118;2023-05-21T06:34:15;4.60;;;2.90;;
35847;SDS011;22332;51.954;20.118;2023-05-21T06:37:21;4.50;;;3.00;;
35847;SDS011;22332;51.954;20.118;2023-05-21T06:40:27;5.30;;;3.70;;
35847;SDS011;22332;51.954;20.118;2023-05-21T06:43:33;3.90;;;3.20;;
35847;SDS011;22332;51.954;20.118;2023-05-21T06:47:11;3.60;;;2.50;;
35847;SDS011;22332;51.954;20.118;2023-05-21T06:50:17;4.90;;;3.00;;
35847;SDS011;22332;51.954;20.118;2023-05-21T06:53:22;3.30;;;2.50;;
35847;SDS011;22332;51.954;20.118;2023-05-21T06:56:28;4.30;;;2.40;;
35847;SDS011;22332;51.954;20.118;2023-05-21T06:59:34;3.20;;;2.50;;
35847;SDS011;22332;51.954;20.118;2023-05-21T07:02:39;4.30;;;2.60;;
35847;SDS011;22332;51.954;20.118;2023-05-21T07:05:45;3.00;;;2.30;;
35847;SDS011;22332;51.954;20.118;2023-05-21T07:08:51;3.90;;;2.60;;
35847;SDS011;22332;51.954;20.118;2023-05-21T07:11:57;3.70;;;2.60;;
35847;SDS011;22332;51.954;20.118;2023-05-21T07:15:04;4.60;;;2.70;;
35847;SDS011;22332;51.954;20.118;2023-05-21T07:18:10;3.80;;;2.40;;
35847;SDS011;22332;51.954;20.118;2023-05-21T07:21:16;4.20;;;2.70;;
35847;SDS011;22332;51.954;20.118;2023-05-21T07:24:23;4.00;;;2.60;;
35847;SDS011;22332;51.954;20.118;2023-05-21T07:27:30;3.50;;;2.50;;
35847;SDS011;22332;51.954;20.118;2023-05-21T07:30:35;5.10;;;2.30;;
35847;SDS011;22332;51.954;20.118;2023-05-21T07:33:44;3.50;;;3.00;;
35847;SDS011;22332;51.954;20.118;2023-05-21T07:36:51;2.90;;;2.60;;
35847;SDS011;22332;51.954;20.118;2023-05-21T07:39:57;3.70;;;2.40;;
35847;SDS011;22332;51.954;20.118;2023-05-21T07:43:04;3.60;;;2.30;;
35847;SDS011;22332;51.954;20.118;2023-05-21T07:46:10;2.60;;;2.30;;
35847;SDS011;22332;51.954;20.118;2023-05-21T07:49:17;5.80;;;2.70;;
35847;SDS011;22332;51.954;20.118;2023-05-21T07:52:23;5.20;;;2.40;;
35847;SDS011;22332;51.954;20.118;2023-05-21T07:55:29;5.40;;;2.20;;
35847;SDS011;22332;51.954;20.118;2023-05-21T07:58:35;3.10;;;2.00;;
35847;SDS011;22332;51.954;20.118;2023-05-21T08:01:42;2.20;;;2.00;;
35847;SDS011;22332;51.954;20.118;2023-05-21T08:04:50;3.90;;;3.00;;
35847;SDS011;22332;51.954;20.118;2023-05-21T08:07:56;3.30;;;2.20;;
35847;SDS011;22332;51.954;20.118;2023-05-21T08:11:02;5.70;;;3.20;;
35847;SDS011;22332;51.954;20.118;2023-05-21T08:14:09;5.70;;;2.40;;
35847;SDS011;22332;51.954;20.118;2023-05-21T08:17:15;3.10;;;2.10;;
35847;SDS011;22332;51.954;20.118;2023-05-21T08:20:21;3.40;;;2.30;;
35847;SDS011;22332;51.954;20.118;2023-05-21T08:23:26;3.40;;;2.20;;
35847;SDS011;22332;51.954;20.118;2023-05-21T08:26:35;1.60;;;1.40;;
35847;SDS011;22332;51.954;20.118;2023-05-21T08:29:41;4.30;;;1.60;;
35847;SDS011;22332;51.954;20.118;2023-05-21T08:32:47;4.40;;;2.80;;
35847;SDS011;22332;51.954;20.118;2023-05-21T08:35:56;3.70;;;2.20;;
35847;SDS011;22332;51.954;20.118;2023-05-21T08:39:05;4.00;;;2.30;;
35847;SDS011;22332;51.954;20.118;2023-05-21T08:42:14;3.60;;;2.20;;
35847;SDS011;22332;51.954;20.118;2023-05-21T08:45:31;2.40;;;2.10;;
35847;SDS011;22332;51.954;20.118;2023-05-21T08:48:42;3.70;;;2.00;;
35847;SDS011;22332;51.954;20.118;2023-05-21T08:51:50;3.20;;;1.60;;
35847;SDS011;22332;51.954;20.118;2023-05-21T08:54:58;2.70;;;1.90;;
35847;SDS011;22332;51.954;20.118;2023-05-21T08:58:06;4.40;;;2.10;;
35847;SDS011;22332;51.954;20.118;2023-05-21T09:01:13;3.20;;;2.00;;
35847;SDS011;22332;51.954;20.118;2023-05-21T09:04:22;6.10;;;1.80;;
35847;SDS011;22332;51.954;20.118;2023-05-21T09:07:30;2.80;;;1.70;;
35847;SDS011;22332;51.954;20.118;2023-05-21T09:14:13;3.60;;;1.70;;
35847;SDS011;22332;51.954;20.118;2023-05-21T09:17:39;2.20;;;1.60;;
35847;SDS011;22332;51.954;20.118;2023-05-21T09:24:31;3.70;;;1.90;;
35847;SDS011;22332;51.954;20.118;2023-05-21T09:27:36;3.50;;;1.90;;
35847;SDS011;22332;51.954;20.118;2023-05-21T09:30:46;3.20;;;2.10;;
35847;SDS011;22332;51.954;20.118;2023-05-21T09:33:56;2.30;;;2.10;;
35847;SDS011;22332;51.954;20.118;2023-05-21T09:37:02;2.70;;;2.10;;
35847;SDS011;22332;51.954;20.118;2023-05-21T09:40:13;3.40;;;2.10;;
35847;SDS011;22332;51.954;20.118;2023-05-21T09:43:20;3.00;;;2.20;;
35847;SDS011;22332;51.954;20.118;2023-05-21T09:46:26;3.20;;;2.00;;
35847;SDS011;22332;51.954;20.118;2023-05-21T09:49:42;3.90;;;2.00;;
35847;SDS011;22332;51.954;20.118;2023-05-21T09:52:48;3.40;;;2.00;;
35847;SDS011;22332;51.954;20.118;2023-05-21T09:55:54;4.10;;;1.90;;
35847;SDS011;22332;51.954;20.118;2023-05-21T09:59:02;2.80;;;2.00;;
35847;SDS011;22332;51.954;20.118;2023-05-21T10:02:18;2.90;;;1.90;;
35847;SDS011;22332;51.954;20.118;2023-05-21T10:05:26;4.60;;;2.00;;
35847;SDS011;22332;51.954;20.118;2023-05-21T10:08:32;3.10;;;1.90;;
35847;SDS011;22332;51.954;20.118;2023-05-21T10:11:44;2.00;;;1.80;;
35847;SDS011;22332;51.954;20.118;2023-05-21T10:14:53;2.10;;;1.80;;
35847;SDS011;22332;51.954;20.118;2023-05-21T10:18:02;2.30;;;1.90;;
35847;SDS011;22332;51.954;20.118;2023-05-21T10:21:09;2.10;;;1.90;;
35847;SDS011;22332;51.954;20.118;2023-05-21T10:24:15;1.80;;;1.60;;
35847;SDS011;22332;51.954;20.118;2023-05-21T10:27:21;3.10;;;2.00;;
35847;SDS011;22332;51.954;20.118;2023-05-21T10:30:27;2.10;;;1.70;;
35847;SDS011;22332;51.954;20.118;2023-05-21T10:33:34;2.10;;;1.80;;
35847;SDS011;22332;51.954;20.118;2023-05-21T10:36:41;3.80;;;1.80;;
35847;SDS011;22332;51.954;20.118;2023-05-21T10:39:49;2.50;;;2.20;;
35847;SDS011;22332;51.954;20.118;2023-05-21T10:43:11;2.60;;;1.80;;
35847;SDS011;22332;51.954;20.118;2023-05-21T10:50:07;3.60;;;1.80;;
35847;SDS011;22332;51.954;20.118;2023-05-21T10:53:33;2.90;;;1.90;;
35847;SDS011;22332;51.954;20.118;2023-05-21T10:56:51;2.30;;;2.00;;
35847;SDS011;22332;51.954;20.118;2023-05-21T11:00:03;3.10;;;2.10;;
35847;SDS011;22332;51.954;20.118;2023-05-21T11:03:10;3.30;;;1.90;;
35847;SDS011;22332;51.954;20.118;2023-05-21T11:06:23;2.10;;;1.80;;
35847;SDS011;22332;51.954;20.118;2023-05-21T11:09:30;4.20;;;2.10;;
35847;SDS011;22332;51.954;20.118;2023-05-21T11:12:36;3.60;;;2.20;;
35847;SDS011;22332;51.954;20.118;2023-05-21T11:19:32;2.30;;;2.10;;
35847;SDS011;22332;51.954;20.118;2023-05-21T11:22:39;2.80;;;2.10;;
35847;SDS011;22332;51.954;20.118;2023-05-21T11:25:45;3.40;;;2.10;;
35847;SDS011;22332;51.954;20.118;2023-05-21T11:29:10;2.00;;;1.80;;
35847;SDS011;22332;51.954;20.118;2023-05-21T11:32:16;2.10;;;1.90;;
35847;SDS011;22332;51.954;20.118;2023-05-21T11:35:22;2.30;;;2.00;;
35847;SDS011;22332;51.954;20.118;2023-05-21T11:38:30;2.90;;;2.00;;
35847;SDS011;22332;51.954;20.118;2023-05-21T11:41:50;2.50;;;2.00;;
35847;SDS011;22332;51.954;20.118;2023-05-21T11:44:56;2.50;;;2.00;;
35847;SDS011;22332;51.954;20.118;2023-05-21T11:48:04;2.90;;;1.90;;
35847;SDS011;22332;51.954;20.118;2023-05-21T11:51:15;2.20;;;2.00;;
35847;SDS011;22332;51.954;20.118;2023-05-21T11:54:22;5.00;;;2.20;;
35847;SDS011;22332;51.954;20.118;2023-05-21T11:57:30;2.40;;;1.80;;
35847;SDS011;22332;51.954;20.118;2023-05-21T12:00:43;2.60;;;2.10;;
35847;SDS011;22332;51.954;20.118;2023-05-21T12:03:49;2.70;;;1.80;;
35847;SDS011;22332;51.954;20.118;2023-05-21T12:06:55;4.90;;;2.20;;
35847;SDS011;22332;51.954;20.118;2023-05-21T12:10:01;1.90;;;1.80;;
35847;SDS011;22332;51.954;20.118;2023-05-21T12:13:06;3.40;;;1.90;;
35847;SDS011;22332;51.954;20.118;2023-05-21T12:16:12;2.70;;;2.00;;
35847;SDS011;22332;51.954;20.118;2023-05-21T12:19:18;2.90;;;2.00;;
35847;SDS011;22332;51.954;20.118;2023-05-21T12:22:24;3.20;;;2.10;;
35847;SDS011;22332;51.954;20.118;2023-05-21T12:25:31;3.20;;;2.10;;
35847;SDS011;22332;51.954;20.118;2023-05-21T12:28:37;4.10;;;1.80;;
35847;SDS011;22332;51.954;20.118;2023-05-21T12:31:47;2.70;;;1.90;;
35847;SDS011;22332;51.954;20.118;2023-05-21T12:34:54;3.10;;;2.00;;
35847;SDS011;22332;51.954;20.118;2023-05-21T12:38:00;3.20;;;2.10;;
35847;SDS011;22332;51.954;20.118;2023-05-21T12:41:06;3.00;;;2.00;;
35847;SDS011;22332;51.954;20.118;2023-05-21T12:44:14;2.40;;;2.00;;
35847;SDS011;22332;51.954;20.118;2023-05-21T12:47:23;4.20;;;2.10;;
35847;SDS011;22332;51.954;20.118;2023-05-21T12:50:37;3.00;;;2.10;;
35847;SDS011;22332;51.954;20.118;2023-05-21T12:53:48;2.40;;;2.00;;
35847;SDS011;22332;51.954;20.118;2023-05-21T12:57:13;3.40;;;2.20;;
35847;SDS011;22332;51.954;20.118;2023-05-21T13:00:24;4.40;;;2.30;;
35847;SDS011;22332;51.954;20.118;2023-05-21T13:03:30;3.50;;;2.10;;
35847;SDS011;22332;51.954;20.118;2023-05-21T13:06:42;2.80;;;2.30;;
35847;SDS011;22332;51.954;20.118;2023-05-21T13:09:48;3.90;;;1.90;;
35847;SDS011;22332;51.954;20.118;2023-05-21T13:12:55;3.80;;;2.10;;
35847;SDS011;22332;51.954;20.118;2023-05-21T13:16:00;2.20;;;2.00;;
35847;SDS011;22332;51.954;20.118;2023-05-21T13:19:06;3.30;;;2.00;;
35847;SDS011;22332;51.954;20.118;2023-05-21T13:22:11;2.90;;;2.00;;
35847;SDS011;22332;51.954;20.118;2023-05-21T13:25:17;3.10;;;1.60;;
35847;SDS011;22332;51.954;20.118;2023-05-21T13:28:26;2.50;;;1.80;;
35847;SDS011;22332;51.954;20.118;2023-05-21T13:31:31;3.00;;;1.90;;
35847;SDS011;22332;51.954;20.118;2023-05-21T13:34:37;3.00;;;1.90;;
35847;SDS011;22332;51.954;20.118;2023-05-21T13:37:42;4.40;;;1.90;;
35847;SDS011;22332;51.954;20.118;2023-05-21T13:40:48;2.80;;;2.00;;
35847;SDS011;22332;51.954;20.118;2023-05-21T13:43:54;3.00;;;2.00;;
35847;SDS011;22332;51.954;20.118;2023-05-21T13:47:00;2.60;;;1.90;;
35847;SDS011;22332;51.954;20.118;2023-05-21T13:50:06;5.80;;;1.90;;
35847;SDS011;22332;51.954;20.118;2023-05-21T13:53:12;2.70;;;2.20;;
35847;SDS011;22332;51.954;20.118;2023-05-21T13:56:18;3.30;;;1.90;;
35847;SDS011;22332;51.954;20.118;2023-05-21T13:59:24;3.20;;;1.80;;
35847;SDS011;22332;51.954;20.118;2023-05-21T14:02:30;3.40;;;2.20;;
35847;SDS011;22332;51.954;20.118;2023-05-21T14:05:36;2.40;;;2.10;;
35847;SDS011;22332;51.954;20.118;2023-05-21T14:08:42;2.10;;;1.90;;
35847;SDS011;22332;51.954;20.118;2023-05-21T14:11:47;3.30;;;2.10;;
35847;SDS011;22332;51.954;20.118;2023-05-21T14:14:53;2.40;;;2.10;;
35847;SDS011;22332;51.954;20.118;2023-05-21T14:17:58;4.50;;;2.10;;
35847;SDS011;22332;51.954;20.118;2023-05-21T14:21:09;5.20;;;2.30;;
35847;SDS011;22332;51.954;20.118;2023-05-21T14:24:14;3.40;;;2.00;;
35847;SDS011;22332;51.954;20.118;2023-05-21T14:27:20;2.90;;;2.10;;
35847;SDS011;22332;51.954;20.118;2023-05-21T14:30:26;2.70;;;2.10;;
35847;SDS011;22332;51.954;20.118;2023-05-21T14:33:31;2.60;;;2.00;;
35847;SDS011;22332;51.954;20.118;2023-05-21T14:36:38;2.50;;;2.10;;
35847;SDS011;22332;51.954;20.118;2023-05-21T14:39:44;2.30;;;2.00;;
35847;SDS011;22332;51.954;20.118;2023-05-21T14:42:50;3.10;;;2.20;;
35847;SDS011;22332;51.954;20.118;2023-05-21T14:45:55;2.80;;;2.30;;
35847;SDS011;22332;51.954;20.118;2023-05-21T14:49:01;3.60;;;2.20;;
35847;SDS011;22332;51.954;20.118;2023-05-21T14:52:07;4.40;;;2.20;;
35847;SDS011;22332;51.954;20.118;2023-05-21T14:55:13;3.00;;;2.00;;
35847;SDS011;22332;51.954;20.118;2023-05-21T14:58:21;3.80;;;2.20;;
35847;SDS011;22332;51.954;20.118;2023-05-21T15:01:26;2.60;;;2.20;;
35847;SDS011;22332;51.954;20.118;2023-05-21T15:04:32;2.40;;;2.00;;
35847;SDS011;22332;51.954;20.118;2023-05-21T15:07:38;4.90;;;2.30;;
35847;SDS011;22332;51.954;20.118;2023-05-21T15:10:43;3.00;;;2.00;;
35847;SDS011;22332;51.954;20.118;2023-05-21T15:13:49;3.50;;;2.10;;
35847;SDS011;22332;51.954;20.118;2023-05-21T15:16:55;3.10;;;2.00;;
35847;SDS011;22332;51.954;20.118;2023-05-21T15:20:00;4.30;;;2.00;;
35847;SDS011;22332;51.954;20.118;2023-05-21T15:23:06;3.80;;;2.10;;
35847;SDS011;22332;51.954;20.118;2023-05-21T15:26:11;3.20;;;2.30;;
35847;SDS011;22332;51.954;20.118;2023-05-21T15:29:17;4.30;;;2.00;;
35847;SDS011;22332;51.954;20.118;2023-05-21T15:32:22;3.90;;;2.00;;
35847;SDS011;22332;51.954;20.118;2023-05-21T15:35:28;2.80;;;2.30;;
35847;SDS011;22332;51.954;20.118;2023-05-21T15:38:33;4.70;;;2.20;;
35847;SDS011;22332;51.954;20.118;2023-05-21T15:41:39;3.60;;;2.10;;
35847;SDS011;22332;51.954;20.118;2023-05-21T15:44:44;3.80;;;2.10;;
35847;SDS011;22332;51.954;20.118;2023-05-21T15:47:50;2.60;;;1.80;;
35847;SDS011;22332;51.954;20.118;2023-05-21T15:50:55;2.10;;;1.90;;
35847;SDS011;22332;51.954;20.118;2023-05-21T15:54:01;3.40;;;2.10;;
35847;SDS011;22332;51.954;20.118;2023-05-21T15:57:07;3.90;;;2.10;;
35847;SDS011;22332;51.954;20.118;2023-05-21T16:00:13;3.10;;;1.90;;
35847;SDS011;22332;51.954;20.118;2023-05-21T16:03:19;4.30;;;2.00;;
35847;SDS011;22332;51.954;20.118;2023-05-21T16:06:24;2.30;;;1.80;;
35847;SDS011;22332;51.954;20.118;2023-05-21T16:09:30;2.70;;;2.10;;
35847;SDS011;22332;51.954;20.118;2023-05-21T16:12:37;4.30;;;2.10;;
35847;SDS011;22332;51.954;20.118;2023-05-21T16:15:43;2.90;;;2.00;;
35847;SDS011;22332;51.954;20.118;2023-05-21T16:18:51;2.10;;;1.90;;
35847;SDS011;22332;51.954;20.118;2023-05-21T16:21:57;2.90;;;2.10;;
35847;SDS011;22332;51.954;20.118;2023-05-21T16:25:03;3.30;;;2.10;;
35847;SDS011;22332;51.954;20.118;2023-05-21T16:28:10;2.90;;;2.20;;
35847;SDS011;22332;51.954;20.118;2023-05-21T16:31:15;3.10;;;1.90;;
35847;SDS011;22332;51.954;20.118;2023-05-21T16:34:21;2.20;;;2.00;;
35847;SDS011;22332;51.954;20.118;2023-05-21T16:37:26;3.30;;;2.10;;
35847;SDS011;22332;51.954;20.118;2023-05-21T16:40:33;2.50;;;2.00;;
35847;SDS011;22332;51.954;20.118;2023-05-21T16:43:38;2.90;;;2.10;;
35847;SDS011;22332;51.954;20.118;2023-05-21T16:46:44;3.20;;;2.20;;
35847;SDS011;22332;51.954;20.118;2023-05-21T16:49:50;2.30;;;1.90;;
35847;SDS011;22332;51.954;20.118;2023-05-21T16:52:57;2.90;;;2.10;;
35847;SDS011;22332;51.954;20.118;2023-05-21T16:56:06;3.00;;;2.70;;
35847;SDS011;22332;51.954;20.118;2023-05-21T16:59:11;4.30;;;3.10;;
35847;SDS011;22332;51.954;20.118;2023-05-21T17:02:17;4.10;;;2.30;;
35847;SDS011;22332;51.954;20.118;2023-05-21T17:05:23;2.90;;;2.40;;
35847;SDS011;22332;51.954;20.118;2023-05-21T17:08:28;5.90;;;2.60;;
35847;SDS011;22332;51.954;20.118;2023-05-21T17:11:36;5.70;;;4.40;;
35847;SDS011;22332;51.954;20.118;2023-05-21T17:14:44;4.70;;;2.80;;
35847;SDS011;22332;51.954;20.118;2023-05-21T17:17:50;3.10;;;2.50;;
35847;SDS011;22332;51.954;20.118;2023-05-21T17:20:56;2.60;;;2.10;;
35847;SDS011;22332;51.954;20.118;2023-05-21T17:24:03;2.80;;;2.20;;
35847;SDS011;22332;51.954;20.118;2023-05-21T17:27:09;3.50;;;2.20;;
35847;SDS011;22332;51.954;20.118;2023-05-21T17:30:14;2.80;;;2.40;;
35847;SDS011;22332;51.954;20.118;2023-05-21T17:33:20;4.10;;;2.10;;
35847;SDS011;22332;51.954;20.118;2023-05-21T17:36:27;3.20;;;2.50;;
35847;SDS011;22332;51.954;20.118;2023-05-21T17:39:33;3.50;;;2.50;;
35847;SDS011;22332;51.954;20.118;2023-05-21T17:42:39;2.70;;;2.20;;
35847;SDS011;22332;51.954;20.118;2023-05-21T17:45:45;3.60;;;2.40;;
35847;SDS011;22332;51.954;20.118;2023-05-21T17:48:51;3.20;;;2.20;;
35847;SDS011;22332;51.954;20.118;2023-05-21T17:51:57;4.40;;;2.40;;
35847;SDS011;22332;51.954;20.118;2023-05-21T17:55:05;3.50;;;2.70;;
35847;SDS011;22332;51.954;20.118;2023-05-21T17:58:13;3.00;;;2.30;;
35847;SDS011;22332;51.954;20.118;2023-05-21T18:01:19;4.40;;;2.30;;
35847;SDS011;22332;51.954;20.118;2023-05-21T18:04:25;2.20;;;1.90;;
35847;SDS011;22332;51.954;20.118;2023-05-21T18:07:30;3.60;;;2.10;;
35847;SDS011;22332;51.954;20.118;2023-05-21T18:10:36;3.10;;;2.60;;
35847;SDS011;22332;51.954;20.118;2023-05-21T18:13:42;5.00;;;2.40;;
35847;SDS011;22332;51.954;20.118;2023-05-21T18:16:47;3.20;;;2.50;;
35847;SDS011;22332;51.954;20.118;2023-05-21T18:19:53;29.10;;;18.90;;
35847;SDS011;22332;51.954;20.118;2023-05-21T18:22:59;14.30;;;7.70;;
35847;SDS011;22332;51.954;20.118;2023-05-21T18:26:05;19.50;;;12.40;;
35847;SDS011;22332;51.954;20.118;2023-05-21T18:29:10;13.30;;;9.20;;
35847;SDS011;22332;51.954;20.118;2023-05-21T18:32:16;11.60;;;8.20;;
35847;SDS011;22332;51.954;20.118;2023-05-21T18:35:22;14.10;;;8.90;;
35847;SDS011;22332;51.954;20.118;2023-05-21T18:38:28;13.10;;;8.60;;
35847;SDS011;22332;51.954;20.118;2023-05-21T18:41:35;11.10;;;7.80;;
35847;SDS011;22332;51.954;20.118;2023-05-21T18:44:41;10.60;;;6.60;;
35847;SDS011;22332;51.954;20.118;2023-05-21T18:47:48;8.60;;;5.80;;